Latest Weather Observations for South Johnstone

IDQ60801

Issued at 7:32 pm EST Monday 17 December 2018 (issued every 10 minutes, with the page automatically refreshed every 10 minutes)

About weather observations | Map of weather stations | Latest weather observations for QLD | Other Formats
Station Details ID: 032037 Name: SOUTH JOHNSTONE EXP STN Lat: -17.61 Lon: 146.00 Height: 18.3 m
Data from the previous 72 hours. | See also: Recent months at South Johnstone
Date/Time
EST
Temp
°C
App
Temp
°C
Dew
Point
°C
Rel
Hum
%
Delta-T
°C
Wind Press
QNH
hPa
Press
MSL
hPa
Rain since
9am
mm
Dir  Spd
km/h
Gust
km/h
Spd
kts
Gust
kts
17/07:30pm 27.0 31.7 22.6 77 3.0 SE 2 7 1 4 1004.6 - 0.0
17/07:00pm 28.4 33.1 21.9 68 4.4 CALM 0 0 0 0 1004.3 - 0.0
17/06:30pm 29.8 34.3 22.3 64 5.1 E 2 7 1 4 1003.9 - 0.0
17/06:00pm 30.4 33.8 21.7 59 5.9 E 6 9 3 5 1003.7 1003.6 0.0
17/05:30pm 30.8 34.0 23.1 63 5.3 ENE 11 15 6 8 1003.4 - 0.0
17/05:00pm 31.4 35.4 23.8 64 5.3 NE 9 17 5 9 1002.9 - 0.0
17/04:30pm 32.0 35.9 24.3 63 5.4 ENE 11 17 6 9 1002.6 - 0.0
17/04:00pm 32.9 37.1 24.7 62 5.8 ENE 11 17 6 9 1002.5 - 0.0
17/03:30pm 33.0 36.0 23.4 57 6.7 NE 13 17 7 9 1002.5 - 0.0
17/03:00pm 33.1 35.5 22.3 53 7.4 NE 13 20 7 11 1002.6 1002.5 0.0
17/02:30pm 34.0 37.9 24.2 56 6.9 ENE 11 17 6 9 1002.9 - 0.0
17/02:00pm 34.1 37.8 23.3 53 7.5 ENE 9 17 5 9 1003.4 - 0.0
17/01:30pm 34.0 37.6 22.4 50 8.0 E 7 11 4 6 1003.8 - 0.0
17/01:00pm 33.7 37.3 23.0 53 7.4 NNE 9 17 5 9 1004.3 - 0.0
17/12:30pm 33.1 35.8 21.3 50 8.0 ENE 9 15 5 8 1004.9 - 0.0
17/12:00pm 33.0 35.7 22.2 53 7.4 E 11 17 6 9 1005.2 1005.1 0.0
17/11:30am 32.4 34.5 20.9 50 7.7 ENE 11 15 6 8 1005.7 - 0.0
17/11:00am 32.4 34.5 20.1 48 8.2 E 9 15 5 8 1006.0 - 0.0
17/10:30am 32.1 34.9 22.3 56 6.7 SSE 11 19 6 10 1006.2 - 0.0
17/10:00am 31.0 34.2 23.0 62 5.5 SE 11 19 6 10 1006.2 - 0.0
17/09:30am 29.5 33.6 24.6 75 3.4 SE 11 17 6 9 1006.3 - 0.0
17/09:00am 28.3 32.4 23.3 74 3.4 ESE 7 11 4 6 1006.2 1006.1 0.0
17/08:30am 27.5 31.7 21.0 67 4.3 CALM 0 0 0 0 1006.0 - 0.0
17/08:00am 25.7 29.9 21.7 78 2.7 WNW 2 6 1 3 1005.9 - 0.0
17/07:30am 24.1 28.0 21.8 87 1.5 WNW 4 7 2 4 1005.7 - 0.0
17/07:00am 23.2 27.1 22.5 96 0.5 W 6 9 3 5 1005.3 - 0.0
17/06:30am 22.8 27.5 22.0 95 0.5 CALM 0 0 0 0 1005.4 - 0.0
17/06:00am 22.7 27.2 22.3 98 0.3 NW 2 7 1 4 1005.2 1005.1 0.0
17/05:30am 22.7 26.3 22.1 96 0.4 W 6 9 3 5 1004.9 - 0.0
17/05:00am 22.9 27.9 22.5 98 0.3 CALM 0 0 0 0 1004.7 - 0.0
17/04:30am 23.1 28.1 22.5 96 0.4 CALM 0 0 0 0 1004.4 - 0.0
17/04:00am 23.1 27.7 22.5 96 0.4 SW 2 7 1 4 1004.0 - 0.0
17/03:30am 23.4 28.3 23.0 98 0.3 WNW 2 6 1 3 1003.7 - 0.0
17/03:00am 23.7 29.1 23.3 98 0.3 CALM 0 0 0 0 1003.9 1003.8 0.0
17/02:30am 23.8 29.2 23.2 96 0.4 CALM 0 7 0 4 1003.9 - 0.0
17/02:00am 24.1 29.7 23.5 96 0.4 CALM 0 0 0 0 1003.9 - 0.0
17/01:30am 24.3 29.9 23.6 96 0.5 CALM 0 6 0 3 1004.1 - 0.0
17/01:00am 24.5 30.3 23.9 96 0.4 CALM 0 0 0 0 1004.3 - 0.0
17/12:30am 24.8 30.3 24.1 96 0.5 W 2 7 1 4 1004.6 - 0.0
17/12:00am 24.9 30.7 24.0 95 0.6 CALM 0 0 0 0 1005.0 1004.9 0.0
 
Date/Time
EST
Temp
°C
App
Temp
°C
Dew
Point
°C
Rel
Hum
%
Delta-T
°C
Wind Press
QNH
hPa
Press
MSL
hPa
Rain since
9am
mm
Dir  Spd
km/h
Gust
km/h
Spd
kts
Gust
kts
16/11:30pm 25.1 31.1 24.2 95 0.6 CALM 0 0 0 0 1005.3 - 0.0
16/11:00pm 25.2 30.5 24.3 95 0.6 NW 4 9 2 5 1005.2 - 0.0
16/10:30pm 25.5 31.3 24.5 94 0.7 SW 2 9 1 5 1005.4 - 0.0
16/10:00pm 25.6 30.7 24.6 94 0.7 WNW 6 7 3 4 1005.2 - 0.0
16/09:30pm 25.9 31.9 24.8 94 0.8 WNW 2 7 1 4 1004.9 - 0.0
16/09:00pm 26.6 32.9 24.7 89 1.3 CALM 0 0 0 0 1004.6 1004.5 0.0
16/08:30pm 26.9 33.2 24.7 88 1.5 CALM 0 2 0 1 1004.3 - 0.0
16/08:00pm 27.5 33.8 24.8 85 1.9 CALM 0 0 0 0 1004.0 - 0.0
16/07:30pm 27.9 34.2 24.8 83 2.2 CALM 0 0 0 0 1003.7 - 0.0
16/07:00pm 28.7 34.4 24.4 77 3.0 NE 2 6 1 3 1003.4 - 0.0
16/06:30pm 29.2 33.7 24.0 73 3.6 NE 7 11 4 6 1002.7 - 0.0
16/06:00pm 30.2 33.5 23.2 66 4.8 ENE 11 17 6 9 1002.1 1002.0 0.0
16/05:30pm 31.1 34.8 23.3 63 5.4 SE 9 15 5 8 1001.5 - 0.0
16/05:00pm 31.7 34.4 23.5 62 5.7 SE 15 20 8 11 1001.1 - 0.0
16/04:30pm 32.7 35.6 23.8 59 6.2 ESE 15 22 8 12 1001.0 - 0.0
16/04:00pm 33.1 37.1 24.4 60 6.1 SE 11 19 6 10 1000.8 - 0.0
16/03:30pm 33.9 37.6 22.6 51 7.8 S 7 13 4 7 1000.9 - 0.0
16/03:00pm 33.6 37.6 23.1 54 7.3 SSW 7 13 4 7 1001.0 1000.9 0.0
16/02:30pm 33.8 37.1 22.6 52 7.7 SW 9 17 5 9 1001.3 - 0.0
16/02:00pm 33.6 37.3 23.2 54 7.2 WSW 9 20 5 11 1001.8 - 0.0
16/01:30pm 32.4 36.6 23.5 59 6.2 W 7 17 4 9 1002.2 - 0.0
16/01:00pm 32.4 35.5 22.8 57 6.6 WSW 11 24 6 13 1002.7 - 0.0
16/12:30pm 32.4 34.7 22.7 56 6.7 SW 15 24 8 13 1002.8 - 0.0
16/12:00pm 32.0 35.4 23.3 60 6.0 W 11 19 6 10 1002.9 1002.8 0.0
16/11:30am 31.3 33.5 21.9 57 6.4 WSW 13 28 7 15 1003.2 - 0.0
16/11:00am 31.3 33.0 22.4 59 6.1 SW 17 33 9 18 1003.1 - 0.0
16/10:30am 30.9 33.8 23.1 63 5.4 W 13 28 7 15 1003.4 - 0.0
16/10:00am 31.2 34.3 22.9 61 5.7 WSW 11 22 6 12 1003.6 - 0.0
16/09:30am 30.8 32.8 22.9 62 5.4 SSW 17 24 9 13 1004.1 - 0.0
16/09:00am 29.4 35.4 24.8 76 3.2 W 2 7 1 4 1004.0 1003.9 136.2
16/08:30am 27.5 32.7 24.2 82 2.3 W 4 9 2 5 1004.1 - 136.2
16/08:00am 26.6 30.4 23.5 83 2.1 SSE 9 13 5 7 1004.0 - 136.2
16/07:30am 26.4 30.9 23.6 84 1.9 S 6 9 3 5 1003.9 - 136.2
16/07:00am 25.3 30.3 23.2 88 1.4 NW 2 7 1 4 1003.0 - 136.2
16/06:30am 25.1 30.0 23.0 88 1.4 NE 2 6 1 3 1002.0 - 136.2
16/06:00am 24.7 29.5 22.9 90 1.2 NW 2 11 1 6 1001.1 1001.0 136.2
16/05:30am 25.0 30.0 22.5 86 1.7 CALM 0 7 0 4 1000.4 - 136.2
16/05:00am 24.4 28.9 22.9 91 1.0 W 4 11 2 6 1000.1 - 136.2
16/04:30am 24.5 28.6 23.0 91 1.0 NW 6 9 3 5 999.7 - 136.2
16/04:00am 24.9 30.0 24.0 95 0.6 WSW 4 9 2 5 999.7 - 136.2
16/03:30am 25.2 30.7 24.6 96 0.4 SW 4 7 2 4 999.7 - 136.2
16/03:00am 25.3 31.7 24.9 98 0.3 CALM 0 0 0 0 999.5 999.4 136.2
16/02:30am 25.4 31.7 24.8 96 0.4 CALM 0 6 0 3 999.2 - 136.0
16/02:00am 25.6 31.6 24.9 96 0.5 SW 2 7 1 4 999.5 - 136.0
16/01:30am 25.8 31.7 25.4 98 0.3 W 4 13 2 7 1000.4 - 135.4
16/01:00am 26.0 32.7 25.4 96 0.4 CALM 0 0 0 0 1000.6 - 132.4
16/12:30am 26.1 31.7 25.4 96 0.5 WSW 6 11 3 6 1000.5 - 132.4
16/12:00am 26.0 31.4 25.4 96 0.4 SSW 7 13 4 7 1001.3 1001.2 132.4
 
Date/Time
EST
Temp
°C
App
Temp
°C
Dew
Point
°C
Rel
Hum
%
Delta-T
°C
Wind Press
QNH
hPa
Press
MSL
hPa
Rain since
9am
mm
Dir  Spd
km/h
Gust
km/h
Spd
kts
Gust
kts
15/11:30pm 26.1 32.9 25.5 96 0.4 CALM 0 6 0 3 1001.8 - 132.4
15/11:00pm 26.2 31.8 25.5 96 0.5 NE 6 11 3 6 1001.9 - 132.4
15/10:30pm 26.0 31.6 25.4 96 0.4 NNE 6 17 3 9 1002.3 - 132.4
15/10:00pm 25.9 32.5 25.3 96 0.4 CALM 0 7 0 4 1002.6 - 131.6
15/09:30pm 26.0 32.7 25.4 96 0.4 CALM 0 6 0 3 1002.5 - 131.0
15/09:00pm 26.1 31.5 25.5 96 0.4 NE 7 20 4 11 1002.6 1002.5 130.2
15/08:30pm 25.9 32.4 25.6 98 0.2 NNW 2 9 1 5 1002.4 - 128.4
15/08:00pm 26.0 32.8 25.6 98 0.3 CALM 0 6 0 3 1002.4 - 127.2
15/07:30pm 25.9 32.0 25.6 98 0.2 W 4 9 2 5 1002.3 - 125.8
15/07:00pm 26.0 32.1 25.6 98 0.3 NNW 4 15 2 8 1002.2 - 118.2
15/06:30pm 26.3 31.9 25.4 95 0.6 NE 6 11 3 6 1001.9 - 109.6
15/06:00pm 26.0 30.2 25.4 96 0.4 SE 13 24 7 13 1001.6 1001.5 103.0
15/05:30pm 26.0 31.5 25.6 98 0.3 SSE 7 13 4 7 1002.1 - 92.6
15/05:00pm 25.9 32.7 25.5 98 0.3 CALM 0 0 0 0 1002.2 - 81.6
15/04:30pm 25.8 31.2 25.2 96 0.4 WNW 6 11 3 6 1002.0 - 79.2
15/04:00pm 25.7 31.5 25.1 96 0.4 SW 4 11 2 6 1001.9 - 72.0
15/03:30pm 25.8 31.0 25.1 96 0.5 ESE 7 13 4 7 1002.6 - 57.8
15/03:00pm 26.2 31.4 25.1 94 0.8 ESE 7 11 4 6 1002.8 1002.7 52.2
15/02:30pm 26.8 31.8 25.4 92 1.0 SE 9 13 5 7 1003.0 - 50.6
15/02:00pm 26.4 31.2 25.1 92 0.9 ESE 9 13 5 7 1003.2 - 50.4
15/01:30pm 26.4 31.8 25.4 94 0.7 E 7 11 4 6 1004.1 - 50.4
15/01:00pm 25.6 31.6 24.9 96 0.5 N 2 7 1 4 1004.7 - 48.8
15/12:30pm 26.1 32.7 25.2 95 0.6 CALM 0 0 0 0 1004.8 - 42.6
15/12:00pm 26.4 31.6 25.1 92 0.9 ENE 7 13 4 7 1005.3 1005.2 32.0
15/11:30am 28.1 35.2 26.0 88 1.5 CALM 0 0 0 0 1005.3 - 24.2
15/11:00am 27.6 34.6 25.9 90 1.2 CALM 0 0 0 0 1005.7 - 23.6
15/10:30am 26.2 31.1 25.3 95 0.6 SW 9 15 5 8 1006.1 - 23.0
15/10:00am 27.1 33.7 25.8 93 0.9 ENE 2 7 1 4 1006.3 - 3.8
15/09:30am 28.7 33.6 24.7 79 2.8 SE 7 11 4 6 1006.1 - 0.0
15/09:00am 29.1 34.0 24.7 77 3.1 SSE 7 13 4 7 1006.3 1006.2 0.4
15/08:30am 27.8 33.4 24.9 84 2.0 ESE 4 9 2 5 1006.5 - 0.4
15/08:00am 27.1 32.9 25.1 89 1.4 SE 4 7 2 4 1006.5 - 0.4
15/07:30am 26.8 32.8 24.8 89 1.4 SSE 2 6 1 3 1006.5 - 0.4
15/07:00am 25.3 31.2 24.1 93 0.8 CALM 0 0 0 0 1006.4 - 0.4
15/06:30am 24.8 29.8 23.8 94 0.7 WSW 4 9 2 5 1006.1 - 0.4
15/06:00am 24.7 29.7 23.8 95 0.6 W 4 9 2 5 1006.1 1006.0 0.4
15/05:30am 24.7 29.8 24.0 96 0.5 W 4 7 2 4 1005.7 - 0.4
15/05:00am 24.9 30.9 24.2 96 0.5 CALM 0 6 0 3 1005.5 - 0.4
15/04:30am 24.9 29.4 24.0 95 0.6 WSW 7 11 4 6 1004.9 - 0.4
15/04:00am 24.9 29.6 24.0 95 0.6 WSW 6 11 3 6 1004.7 - 0.4
15/03:30am 25.0 30.9 24.1 95 0.6 CALM 0 0 0 0 1004.8 - 0.4
15/03:00am 25.2 30.3 24.0 93 0.8 WSW 4 7 2 4 1004.9 1004.8 0.4
15/02:30am 25.2 30.4 24.2 94 0.7 W 4 7 2 4 1004.9 - 0.4
15/02:00am 25.2 31.2 24.2 94 0.7 CALM 0 0 0 0 1004.8 - 0.4
15/01:30am 25.3 31.3 24.3 94 0.7 CALM 0 0 0 0 1004.9 - 0.4
15/01:00am 25.4 31.7 24.7 96 0.5 CALM 0 0 0 0 1005.2 - 0.4
15/12:30am 25.3 31.4 24.4 95 0.6 CALM 0 0 0 0 1005.0 - 0.4
15/12:00am 25.6 31.8 24.6 94 0.7 CALM 0 0 0 0 1005.1 1005.0 0.4
 
Date/Time
EST
Temp
°C
App
Temp
°C
Dew
Point
°C
Rel
Hum
%
Delta-T
°C
Wind Press
QNH
hPa
Press
MSL
hPa
Rain since
9am
mm
Dir  Spd
km/h
Gust
km/h
Spd
kts
Gust
kts
14/11:30pm 25.6 31.9 24.7 95 0.6 CALM 0 0 0 0 1005.5 - 0.4
14/11:00pm 25.7 31.5 24.5 93 0.8 WSW 2 9 1 5 1006.0 - 0.4
14/10:30pm 26.0 32.4 24.9 94 0.8 CALM 0 0 0 0 1006.3 - 0.2
14/10:00pm 25.9 31.5 24.9 94 0.7 WSW 4 7 2 4 1006.1 - 0.2
14/09:30pm 26.1 32.4 24.8 92 0.9 CALM 0 0 0 0 1006.0 - 0.2
14/09:00pm 26.1 32.4 24.7 92 1.0 CALM 0 0 0 0 1006.0 1005.9 0.2
14/08:30pm 26.8 33.0 24.6 88 1.5 CALM 0 0 0 0 1006.3 - 0.2
14/08:00pm 27.2 33.2 24.3 84 2.0 CALM 0 0 0 0 1005.9 - 0.0

Other Formats:

Comma delimited format used in spreadsheet applications
http://www.bom.gov.au/fwo/IDQ60801/IDQ60801.95292.axf

JavaScript Object Notation format (JSON) in row-major order
http://www.bom.gov.au/fwo/IDQ60801/IDQ60801.95292.json